KNRB/NRB METAR and TAF weather

Enter ICAO airport designator
Station Type Date Time Source
KNRB METAR 2020/07/11 02:52 UTC NOAA

KNRB 110252Z AUTO 21007KT 10SM FEW050 27/24 A2991 RMK AO2 SLP128 T02720239 51009


Station Type Date Time Source
KNRB Decoded METAR 2020/07/11 02:52 UTC NOAA

MAYPORT NAVAL AIR FACILITY, FL, United States (KNRB) 30-24N 81-25W 4M
Jul 10, 2020 - 10:52 PM EDT / 2020.07.11 0252 UTC
Wind: from the SSW (210 degrees) at 8 MPH (7 KT):0
Visibility: 10 mile(s):0
Sky conditions: mostly clear
Temperature: 81.0 F (27.2 C)
Dew Point: 75.0 F (23.9 C)
Relative Humidity: 82%
Pressure (altimeter): 29.91 in. Hg (1012 hPa)
Pressure tendency: 0.03 inches (0.9 hPa) higher than three hours ago
ob: KNRB 110252Z AUTO 21007KT 10SM FEW050 27/24 A2991 RMK AO2 SLP128 T02720239 51009
cycle: 3

Station Type Date Time Source
KNRB TAF 2020/07/10 23:49 UTC NOAA

TAF KNRB 1023/1123 13008KT 9999 VCTS SCT040CB SCT250 QNH2985INS
FM110300 27005KT 9999 FEW030 SCT250 QNH2990INS
FM111700 12010KT 9999 VCTS SCT040CB BKN250 QNH2986INS LAST NO AMENDS AFT 1023 NEXT 1307 AUTOMATED SENSOR METWATCH 1022 TIL 1309 T25/1110Z T34/1119Z FN20021

Example: see airport list